createdAt,value
2023-02-26T00:01:50.770Z,34.70
2023-02-26T00:04:17.997Z,33.50
2023-02-26T00:06:57.932Z,36.38
2023-02-26T00:09:25.873Z,24.90
2023-02-26T00:11:53.469Z,28.23
2023-02-26T00:14:20.722Z,27.02
2023-02-26T00:17:00.937Z,26.27
2023-02-26T00:19:28.078Z,33.70
2023-02-26T00:21:55.437Z,23.40
2023-02-26T00:24:22.435Z,25.43
2023-02-26T00:26:49.665Z,24.25
2023-02-26T00:29:16.952Z,27.50
2023-02-26T00:31:44.328Z,18.33
2023-02-26T00:34:14.731Z,20.10
2023-02-26T00:36:45.430Z,18.43
2023-02-26T00:39:35.429Z,23.80
2023-02-26T00:42:02.714Z,24.35
2023-02-26T00:44:30.130Z,22.30
2023-02-26T00:47:15.440Z,23.35
2023-02-26T00:50:16.124Z,21.20
2023-02-26T00:53:24.458Z,17.30
2023-02-26T00:55:51.419Z,19.45
2023-02-26T00:58:18.598Z,23.35
2023-02-26T01:00:47.002Z,19.35
2023-02-26T01:03:14.204Z,22.93
2023-02-26T01:05:41.733Z,19.40
2023-02-26T01:08:33.981Z,20.65
2023-02-26T01:11:01.213Z,18.77
2023-02-26T01:13:28.345Z,17.60
2023-02-26T01:16:02.920Z,18.63
2023-02-26T01:18:39.494Z,20.48
2023-02-26T01:21:10.574Z,20.88
2023-02-26T01:23:41.479Z,17.65
2023-02-26T01:26:17.861Z,17.42
2023-02-26T01:28:45.765Z,16.93
2023-02-26T01:31:35.268Z,16.67
2023-02-26T01:34:20.117Z,15.25
2023-02-26T01:36:55.598Z,15.68
2023-02-26T01:39:37.688Z,12.90
2023-02-26T01:42:18.109Z,10.37
2023-02-26T01:44:51.122Z,11.48
2023-02-26T01:47:23.810Z,12.88
2023-02-26T01:49:51.165Z,11.40
2023-02-26T01:52:50.576Z,11.48
2023-02-26T01:55:24.413Z,11.37
2023-02-26T01:57:55.616Z,11.25
2023-02-26T02:00:23.186Z,12.52
2023-02-26T02:02:51.074Z,9.82
2023-02-26T02:05:26.060Z,9.65
2023-02-26T02:07:53.273Z,11.40
2023-02-26T02:10:20.454Z,11.52
2023-02-26T02:13:10.194Z,8.65
2023-02-26T02:16:21.801Z,10.98
2023-02-26T02:19:01.002Z,8.55
2023-02-26T02:21:36.982Z,9.90
2023-02-26T02:24:17.943Z,10.48
2023-02-26T02:27:00.358Z,8.95
2023-02-26T02:29:53.648Z,11.02
2023-02-26T02:32:36.572Z,10.65
2023-02-26T02:35:14.262Z,7.40
2023-02-26T02:37:50.869Z,14.60
2023-02-26T02:40:23.875Z,10.68
2023-02-26T02:43:17.137Z,16.10
2023-02-26T02:45:51.096Z,13.48
2023-02-26T02:48:20.758Z,14.57
2023-02-26T02:50:52.539Z,15.18
2023-02-26T02:53:26.273Z,15.43
2023-02-26T02:56:02.464Z,13.75
2023-02-26T02:58:33.335Z,16.15
2023-02-26T03:01:06.756Z,18.90
2023-02-26T03:03:56.067Z,17.02
2023-02-26T03:06:23.428Z,18.30
2023-02-26T03:08:52.440Z,15.18
2023-02-26T03:11:19.964Z,17.50
2023-02-26T03:13:49.349Z,14.97
2023-02-26T03:16:25.425Z,17.90
2023-02-26T03:19:04.942Z,15.63
2023-02-26T03:21:44.469Z,13.30
2023-02-26T03:24:21.602Z,14.38
2023-02-26T03:26:58.698Z,11.67
2023-02-26T03:29:47.493Z,11.88
2023-02-26T03:32:39.918Z,11.32
2023-02-26T03:35:16.638Z,10.13
2023-02-26T03:37:50.195Z,9.77
2023-02-26T03:40:24.947Z,12.07
2023-02-26T03:42:59.614Z,13.15
2023-02-26T03:45:34.784Z,12.45
2023-02-26T03:48:06.220Z,10.50
2023-02-26T03:50:42.415Z,11.07
2023-02-26T03:53:44.874Z,12.23
2023-02-26T03:56:39.864Z,12.95
2023-02-26T03:59:25.596Z,10.02
2023-02-26T04:02:22.582Z,9.57
2023-02-26T04:05:15.167Z,11.73
2023-02-26T04:07:45.796Z,9.77
2023-02-26T04:10:18.177Z,11.40
2023-02-26T04:12:45.632Z,11.13
2023-02-26T04:15:12.720Z,11.73
2023-02-26T04:17:40.944Z,9.80
2023-02-26T04:34:58.007Z,10.15
2023-02-26T04:37:45.491Z,9.93
2023-02-26T04:40:13.107Z,9.55
2023-02-26T04:42:40.300Z,11.80
2023-02-26T04:45:07.878Z,6.88
2023-02-26T04:47:37.793Z,8.45
2023-02-26T04:50:05.801Z,7.73
2023-02-26T04:52:33.117Z,5.95
2023-02-26T04:55:00.173Z,5.70
2023-02-26T04:57:27.312Z,6.80
2023-02-26T04:59:54.961Z,6.60
2023-02-26T05:06:58.290Z,6.20
2023-02-26T05:09:25.396Z,5.20
2023-02-26T05:11:52.627Z,6.43
2023-02-26T05:14:19.657Z,4.80
2023-02-26T05:16:49.370Z,5.20
2023-02-26T05:19:16.970Z,4.00
2023-02-26T05:21:46.711Z,4.63
2023-02-26T05:24:14.472Z,5.95
2023-02-26T05:30:58.085Z,5.17
2023-02-26T05:33:26.273Z,4.22
2023-02-26T05:35:53.548Z,3.85
2023-02-26T05:38:20.594Z,3.40
2023-02-26T05:40:47.586Z,4.05
2023-02-26T05:43:14.674Z,5.03
2023-02-26T05:45:41.728Z,3.20
2023-02-26T05:48:11.226Z,4.50
2023-02-26T05:50:38.219Z,3.90
2023-02-26T05:53:05.423Z,3.90
2023-02-26T05:55:32.541Z,3.77
2023-02-26T05:57:59.577Z,3.30
2023-02-26T06:00:27.332Z,3.58
2023-02-26T06:03:21.555Z,3.83
2023-02-26T06:05:48.767Z,3.28
2023-02-26T06:08:16.654Z,3.50
2023-02-26T06:10:44.548Z,4.35
2023-02-26T06:13:11.722Z,3.30
2023-02-26T06:15:38.820Z,4.45
2023-02-26T06:18:36.836Z,3.75
2023-02-26T06:21:10.092Z,4.63
2023-02-26T06:23:37.113Z,4.13
2023-02-26T06:26:04.965Z,3.80
2023-02-26T06:28:32.665Z,4.13
2023-02-26T06:30:59.949Z,4.75
2023-02-26T06:33:27.122Z,3.70
2023-02-26T06:35:54.200Z,3.83
2023-02-26T06:38:21.239Z,4.15
2023-02-26T06:40:48.655Z,4.10
2023-02-26T06:43:15.701Z,4.30
2023-02-26T06:45:42.933Z,4.37
2023-02-26T06:48:10.284Z,4.50
2023-02-26T06:50:37.632Z,4.55
2023-02-26T06:53:08.137Z,4.07
2023-02-26T06:55:35.258Z,4.47
2023-02-26T06:58:12.201Z,6.27
2023-02-26T07:00:44.362Z,5.10
2023-02-26T07:03:26.928Z,6.20
2023-02-26T07:06:27.803Z,6.40
2023-02-26T07:09:07.221Z,4.55
2023-02-26T07:11:53.108Z,6.63
2023-02-26T07:14:42.821Z,8.90
2023-02-26T07:17:10.702Z,8.57
2023-02-26T07:19:58.949Z,7.13
2023-02-26T07:22:44.538Z,6.15
2023-02-26T07:25:28.810Z,5.10
2023-02-26T07:28:23.171Z,5.05
2023-02-26T07:31:17.886Z,6.45
2023-02-26T07:35:20.568Z,5.55
2023-02-26T07:38:12.774Z,6.30
2023-02-26T07:40:53.136Z,4.63
2023-02-26T07:43:35.987Z,6.45
2023-02-26T07:49:48.706Z,5.13
2023-02-26T07:52:27.046Z,4.90
2023-02-26T07:55:05.536Z,5.20
2023-02-26T07:58:10.816Z,6.30
2023-02-26T08:01:27.740Z,5.30
2023-02-26T08:05:28.914Z,5.03
2023-02-26T08:07:39.830Z,5.18
2023-02-26T08:10:16.060Z,5.80
2023-02-26T08:20:54.711Z,4.28
2023-02-26T08:24:01.346Z,5.55
2023-02-26T08:27:22.134Z,6.17
2023-02-26T08:34:12.768Z,3.85
2023-02-26T08:37:35.568Z,3.83
2023-02-26T08:40:33.292Z,4.32
2023-02-26T08:44:01.140Z,5.10
2023-02-26T08:47:21.780Z,3.30
2023-02-26T08:49:54.957Z,4.40
2023-02-26T08:52:22.153Z,6.25
2023-02-26T08:54:49.154Z,5.18
2023-02-26T08:57:16.392Z,3.90
2023-02-26T08:59:43.427Z,3.30
2023-02-26T09:02:14.729Z,3.40
2023-02-26T09:04:41.791Z,3.75
2023-02-26T09:07:08.799Z,3.47
2023-02-26T09:09:35.871Z,4.40
2023-02-26T09:12:02.945Z,3.55
2023-02-26T09:14:29.914Z,3.15
2023-02-26T09:16:57.076Z,3.83
2023-02-26T09:19:24.414Z,4.13
2023-02-26T09:21:51.593Z,3.77
2023-02-26T09:24:18.631Z,3.75
2023-02-26T09:26:45.641Z,3.65
2023-02-26T09:29:14.826Z,3.45
2023-02-26T09:31:42.084Z,7.28
2023-02-26T09:34:11.150Z,4.27
2023-02-26T09:36:39.009Z,3.35
2023-02-26T09:39:06.752Z,3.78
2023-02-26T09:41:38.652Z,4.15
2023-02-26T09:44:25.804Z,3.90
2023-02-26T09:47:04.345Z,6.23
2023-02-26T09:49:40.631Z,4.55
2023-02-26T09:52:32.205Z,3.60
2023-02-26T09:55:09.865Z,3.70
2023-02-26T09:57:42.531Z,3.83
2023-02-26T10:00:23.910Z,4.10
2023-02-26T10:03:00.039Z,4.07
2023-02-26T10:05:46.120Z,3.95
2023-02-26T10:08:17.319Z,4.72
2023-02-26T10:11:01.788Z,6.95
2023-02-26T10:13:56.533Z,3.50
2023-02-26T10:16:29.155Z,5.65
2023-02-26T10:19:04.780Z,4.03
2023-02-26T10:21:51.041Z,5.43
2023-02-26T10:24:37.898Z,5.68
2023-02-26T10:27:07.796Z,4.87
2023-02-26T10:29:40.935Z,4.32
2023-02-26T10:32:26.476Z,4.90
2023-02-26T10:35:12.150Z,4.43
2023-02-26T10:38:09.825Z,3.80
2023-02-26T10:41:02.185Z,5.43
2023-02-26T10:43:58.423Z,8.25
2023-02-26T10:46:38.082Z,3.60
2023-02-26T10:49:23.864Z,3.97
2023-02-26T10:52:00.123Z,4.68
2023-02-26T10:54:41.312Z,4.00
2023-02-26T10:57:19.713Z,5.07
2023-02-26T10:59:48.332Z,3.95
2023-02-26T11:02:49.498Z,5.20
2023-02-26T11:05:27.031Z,4.35
2023-02-26T11:08:09.606Z,3.60
2023-02-26T11:10:53.705Z,5.53
2023-02-26T11:13:26.902Z,4.50
2023-02-26T11:15:57.266Z,4.18
2023-02-26T11:18:43.517Z,5.45
2023-02-26T11:21:36.787Z,8.83
2023-02-26T11:24:16.108Z,4.82
2023-02-26T11:27:04.441Z,4.67
2023-02-26T11:32:37.249Z,4.38
2023-02-26T11:35:11.142Z,4.78
2023-02-26T11:37:41.325Z,5.32
2023-02-26T11:40:27.882Z,6.40
2023-02-26T11:43:05.391Z,3.95
2023-02-26T11:45:40.284Z,6.30
2023-02-26T11:48:27.835Z,4.63
2023-02-26T11:51:00.589Z,4.78
2023-02-26T11:53:30.533Z,4.60
2023-02-26T11:56:30.209Z,5.28
2023-02-26T11:59:05.661Z,6.47
2023-02-26T12:01:32.753Z,4.35
2023-02-26T12:04:02.625Z,5.05
2023-02-26T12:06:30.655Z,5.10
2023-02-26T12:08:58.882Z,4.18
2023-02-26T12:11:37.812Z,3.75
2023-02-26T12:14:42.110Z,4.70
2023-02-26T12:17:28.054Z,5.78
2023-02-26T12:20:15.402Z,4.63
2023-02-26T12:22:55.294Z,5.47
2023-02-26T12:25:39.696Z,4.78
2023-02-26T12:28:42.697Z,4.70
2023-02-26T12:31:18.222Z,4.25
2023-02-26T12:33:51.152Z,4.97
2023-02-26T12:36:48.939Z,6.95
2023-02-26T12:39:31.040Z,5.30
2023-02-26T12:42:28.546Z,5.60
2023-02-26T12:45:22.472Z,7.97
2023-02-26T12:48:22.752Z,5.80
2023-02-26T12:51:04.354Z,5.78
2023-02-26T12:54:19.537Z,4.63
2023-02-26T12:57:27.713Z,6.20
2023-02-26T13:00:05.297Z,5.90
2023-02-26T13:03:13.407Z,6.70
2023-02-26T13:05:48.836Z,7.05
2023-02-26T13:08:33.438Z,8.95
2023-02-26T13:11:12.534Z,6.90
2023-02-26T13:13:51.379Z,7.25
2023-02-26T13:16:43.356Z,5.50
2023-02-26T13:19:24.024Z,13.48
2023-02-26T13:22:03.088Z,7.60
2023-02-26T13:24:42.950Z,7.32
2023-02-26T13:27:12.627Z,8.07
2023-02-26T13:29:51.532Z,7.27
2023-02-26T13:32:23.181Z,7.30
2023-02-26T13:35:07.849Z,8.07
2023-02-26T13:37:41.168Z,7.63
2023-02-26T13:40:29.926Z,7.78
2023-02-26T13:43:14.942Z,9.40
2023-02-26T13:46:09.566Z,10.63
2023-02-26T13:48:42.645Z,8.95
2023-02-26T13:51:25.113Z,8.23
2023-02-26T13:53:54.163Z,8.90
2023-02-26T13:56:31.229Z,9.27
2023-02-26T13:59:06.277Z,7.82
2023-02-26T14:01:44.637Z,9.65
2023-02-26T14:04:23.508Z,8.00
2023-02-26T14:07:10.586Z,12.68
2023-02-26T14:10:05.410Z,9.57
2023-02-26T14:12:42.641Z,9.18
2023-02-26T14:15:12.923Z,11.57
2023-02-26T14:18:00.933Z,9.90
2023-02-26T14:20:30.877Z,10.07
2023-02-26T14:23:11.010Z,11.40
2023-02-26T14:25:47.218Z,10.55
2023-02-26T14:28:42.972Z,9.90
2023-02-26T14:31:13.113Z,10.02
2023-02-26T14:34:06.039Z,11.55
2023-02-26T14:36:37.198Z,12.73
2023-02-26T14:39:09.594Z,11.02
2023-02-26T14:41:41.443Z,11.13
2023-02-26T14:44:16.177Z,11.90
2023-02-26T14:46:44.623Z,11.82
2023-02-26T14:49:42.676Z,10.77
2023-02-26T14:52:12.392Z,12.00
2023-02-26T14:54:42.398Z,10.95
2023-02-26T14:57:27.756Z,12.07
2023-02-26T15:00:12.473Z,13.77
2023-02-26T15:02:53.089Z,14.53
2023-02-26T15:05:43.800Z,13.40
2023-02-26T15:08:38.667Z,13.52
2023-02-26T15:11:26.501Z,14.43
2023-02-26T15:14:17.878Z,11.45
2023-02-26T15:16:57.037Z,12.97
2023-02-26T15:19:29.717Z,12.38
2023-02-26T15:22:08.488Z,12.18
2023-02-26T15:24:35.703Z,12.85
2023-02-26T15:27:06.593Z,12.57
2023-02-26T15:29:41.244Z,12.33
2023-02-26T15:32:21.940Z,14.48
2023-02-26T15:35:04.967Z,13.38
2023-02-26T15:37:33.873Z,13.55
2023-02-26T15:40:05.219Z,14.50
2023-02-26T15:42:38.675Z,14.60
2023-02-26T15:45:22.342Z,14.55
2023-02-26T15:47:58.065Z,13.93
2023-02-26T15:50:31.505Z,14.85
2023-02-26T15:53:04.019Z,14.73
2023-02-26T15:55:37.629Z,13.13
2023-02-26T15:58:07.187Z,11.50
2023-02-26T16:00:37.234Z,13.73
2023-02-26T16:03:05.186Z,15.30
2023-02-26T16:05:32.394Z,14.90
2023-02-26T16:07:59.576Z,13.73
2023-02-26T16:10:32.562Z,16.48
2023-02-26T16:13:02.036Z,13.48
2023-02-26T16:15:37.035Z,13.10
2023-02-26T16:18:07.785Z,12.90
2023-02-26T16:20:45.071Z,13.23
2023-02-26T16:23:25.051Z,15.90
2023-02-26T16:26:00.186Z,14.73
2023-02-26T16:28:29.371Z,15.25
2023-02-26T16:30:59.074Z,11.48
2023-02-26T16:33:27.000Z,14.90
2023-02-26T16:36:18.432Z,13.60
2023-02-26T16:38:46.363Z,15.48
2023-02-26T16:41:14.673Z,15.70
2023-02-26T16:43:44.858Z,16.80
2023-02-26T16:46:16.849Z,14.57
2023-02-26T16:48:54.595Z,17.30
2023-02-26T16:51:26.075Z,13.43
2023-02-26T16:54:27.391Z,14.32
2023-02-26T16:57:04.176Z,14.52
2023-02-26T16:59:35.060Z,13.80
2023-02-26T17:02:04.209Z,13.50
2023-02-26T17:04:37.017Z,13.50
2023-02-26T17:07:30.071Z,15.55
2023-02-26T17:10:00.459Z,15.20
2023-02-26T17:12:44.495Z,13.50
2023-02-26T17:15:36.242Z,9.32
2023-02-26T17:18:03.554Z,13.18
2023-02-26T17:20:31.909Z,12.57
2023-02-26T17:23:01.585Z,10.70
2023-02-26T17:25:34.952Z,12.30
2023-02-26T17:28:02.502Z,11.27
2023-02-26T17:30:33.763Z,35.95
2023-02-26T17:33:04.095Z,13.32
2023-02-26T17:35:31.657Z,14.43
2023-02-26T17:38:00.618Z,15.53
2023-02-26T17:40:31.920Z,13.38
2023-02-26T17:43:00.406Z,14.48
2023-02-26T17:45:27.764Z,11.25
2023-02-26T17:47:56.814Z,13.25
2023-02-26T17:50:30.353Z,12.87
2023-02-26T17:52:57.870Z,12.35
2023-02-26T17:55:24.927Z,15.98
2023-02-26T17:57:52.161Z,11.88
2023-02-26T18:00:19.884Z,12.82
2023-02-26T18:02:46.977Z,14.80
2023-02-26T18:05:14.535Z,11.70
2023-02-26T18:07:41.734Z,12.68
2023-02-26T18:10:17.166Z,10.20
2023-02-26T18:12:47.682Z,12.15
2023-02-26T18:15:17.274Z,12.83
2023-02-26T18:17:44.774Z,14.15
2023-02-26T18:20:24.378Z,12.38
2023-02-26T18:22:51.761Z,12.95
2023-02-26T18:25:19.053Z,12.32
2023-02-26T18:27:50.250Z,11.33
2023-02-26T18:30:23.372Z,11.73
2023-02-26T18:32:50.923Z,13.07
2023-02-26T18:35:18.199Z,12.93
2023-02-26T18:37:45.978Z,12.75
2023-02-26T18:40:18.288Z,10.20
2023-02-26T18:42:49.279Z,13.27
2023-02-26T18:45:23.816Z,12.15
2023-02-26T18:47:51.297Z,13.20
2023-02-26T18:50:18.835Z,11.18
2023-02-26T18:52:45.858Z,10.73
2023-02-26T18:55:13.372Z,10.80
2023-02-26T18:57:42.584Z,10.32
2023-02-26T19:00:15.676Z,11.15
2023-02-26T19:02:44.768Z,11.32
2023-02-26T19:05:13.590Z,8.50
2023-02-26T19:07:42.807Z,10.77
2023-02-26T19:10:14.769Z,11.43
2023-02-26T19:12:42.978Z,10.52
2023-02-26T19:15:12.870Z,11.75
2023-02-26T19:17:41.096Z,10.33
2023-02-26T19:20:09.153Z,9.45
2023-02-26T19:22:36.313Z,9.65
2023-02-26T19:25:05.001Z,9.93
2023-02-26T19:27:32.915Z,10.77
2023-02-26T19:30:00.204Z,8.33
2023-02-26T19:32:28.724Z,10.70
2023-02-26T19:34:55.974Z,11.35
2023-02-26T19:37:23.317Z,10.95
2023-02-26T19:39:50.508Z,6.82
2023-02-26T19:42:17.747Z,17.77
2023-02-26T19:44:44.786Z,11.15
2023-02-26T19:47:11.914Z,12.75
2023-02-26T19:49:39.050Z,11.52
2023-02-26T19:52:08.351Z,9.77
2023-02-26T19:54:35.504Z,9.23
2023-02-26T19:57:02.466Z,10.00
2023-02-26T19:59:29.592Z,11.30
2023-02-26T20:01:56.685Z,9.25
2023-02-26T20:04:23.773Z,11.63
2023-02-26T20:06:51.270Z,10.70
2023-02-26T20:09:20.223Z,10.48
2023-02-26T20:11:47.525Z,9.48
2023-02-26T20:14:15.174Z,9.20
2023-02-26T20:16:42.316Z,9.50
2023-02-26T20:19:09.369Z,10.00
2023-02-26T20:21:36.398Z,8.38
2023-02-26T20:24:03.497Z,8.30
2023-02-26T20:26:30.573Z,8.85
2023-02-26T20:28:57.564Z,9.07
2023-02-26T20:31:25.042Z,10.53
2023-02-26T20:33:53.034Z,9.82
2023-02-26T20:36:20.536Z,9.38
2023-02-26T20:38:48.500Z,8.02
2023-02-26T20:41:15.616Z,9.15
2023-02-26T20:43:42.693Z,9.03
2023-02-26T20:46:09.919Z,7.82
2023-02-26T20:48:41.795Z,8.20
2023-02-26T20:51:12.066Z,10.38
2023-02-26T20:53:39.878Z,7.90
2023-02-26T20:56:07.478Z,9.37
2023-02-26T20:58:34.731Z,9.30
2023-02-26T21:01:01.846Z,7.95
2023-02-26T21:03:28.864Z,9.27
2023-02-26T21:05:55.981Z,7.90
2023-02-26T21:08:23.652Z,8.43
2023-02-26T21:10:51.813Z,8.02
2023-02-26T21:13:19.495Z,8.77
2023-02-26T21:15:46.803Z,8.50
2023-02-26T21:18:13.933Z,9.88
2023-02-26T21:20:40.920Z,8.47
2023-02-26T21:23:08.198Z,9.48
2023-02-26T21:25:35.451Z,9.05
2023-02-26T21:28:02.460Z,8.40
2023-02-26T21:30:29.506Z,7.88
2023-02-26T21:32:56.654Z,8.37
2023-02-26T21:35:23.762Z,8.13
2023-02-26T21:37:50.860Z,10.05
2023-02-26T21:40:18.017Z,8.50
2023-02-26T21:42:45.193Z,7.80
2023-02-26T21:45:12.968Z,8.30
2023-02-26T21:47:40.080Z,9.15
2023-02-26T21:50:07.557Z,7.65
2023-02-26T21:52:34.708Z,8.27
2023-02-26T21:55:01.805Z,8.40
2023-02-26T21:57:30.893Z,8.00
2023-02-26T21:59:58.077Z,7.72
2023-02-26T22:02:25.400Z,9.63
2023-02-26T22:04:52.417Z,7.65
2023-02-26T22:07:19.998Z,8.60
2023-02-26T22:09:49.085Z,8.73
2023-02-26T22:12:19.212Z,10.55
2023-02-26T22:14:46.289Z,7.88
2023-02-26T22:17:13.359Z,8.10
2023-02-26T22:19:41.425Z,7.70
2023-02-26T22:22:09.638Z,9.50
2023-02-26T22:24:36.898Z,8.30
2023-02-26T22:27:04.193Z,9.38
2023-02-26T22:29:31.276Z,8.35
2023-02-26T22:31:58.414Z,7.30
2023-02-26T22:34:25.933Z,10.13
2023-02-26T22:36:53.166Z,7.68
2023-02-26T22:39:20.619Z,7.47
2023-02-26T22:41:48.019Z,8.23
2023-02-26T22:44:15.288Z,9.95
2023-02-26T22:46:42.381Z,10.50
2023-02-26T22:49:09.620Z,8.82
2023-02-26T22:51:36.680Z,7.47
2023-02-26T22:54:03.838Z,8.70
2023-02-26T22:56:30.932Z,9.02
2023-02-26T22:58:58.056Z,9.50
2023-02-26T23:01:25.987Z,8.45
2023-02-26T23:03:53.187Z,9.00
2023-02-26T23:06:20.294Z,8.93
2023-02-26T23:08:47.605Z,7.75
2023-02-26T23:11:14.800Z,10.40
2023-02-26T23:13:42.412Z,8.52
2023-02-26T23:16:11.156Z,9.00
2023-02-26T23:18:39.575Z,9.50
2023-02-26T23:21:08.270Z,8.88
2023-02-26T23:28:00.850Z,13.00
2023-02-26T23:30:28.366Z,9.27
2023-02-26T23:32:56.481Z,8.68
2023-02-26T23:35:23.632Z,8.10
2023-02-26T23:37:50.782Z,8.50
2023-02-26T23:40:18.101Z,11.88
2023-02-26T23:42:45.212Z,8.75
2023-02-26T23:45:12.803Z,7.60
2023-02-26T23:47:40.426Z,7.95
2023-02-26T23:50:08.004Z,9.07
2023-02-26T23:52:35.767Z,9.20
2023-02-26T23:55:04.271Z,9.18
2023-02-26T23:57:31.802Z,8.98
2023-02-26T23:59:58.897Z,7.28
